createdAt,value
2018-08-19T00:01:52.428Z,17.78
2018-08-19T00:06:51.815Z,18.28
2018-08-19T00:11:52.094Z,18.38
2018-08-19T00:16:52.810Z,18.18
2018-08-19T00:21:52.780Z,17.38
2018-08-19T00:26:52.400Z,17.78
2018-08-19T00:31:54.152Z,17.88
2018-08-19T00:36:52.179Z,17.28
2018-08-19T00:41:52.373Z,17.68
2018-08-19T00:46:52.671Z,17.88
2018-08-19T00:51:52.135Z,17.08
2018-08-19T00:56:51.773Z,16.78
2018-08-19T01:01:52.075Z,16.48
2018-08-19T01:06:52.589Z,16.58
2018-08-19T01:11:51.763Z,17.18
2018-08-19T01:16:52.089Z,17.78
2018-08-19T01:21:52.535Z,17.78
2018-08-19T01:26:52.116Z,16.88
2018-08-19T01:31:52.444Z,16.58
2018-08-19T01:36:51.901Z,16.18
2018-08-19T01:41:52.492Z,16.68
2018-08-19T01:46:52.434Z,16.88
2018-08-19T01:51:52.326Z,16.68
2018-08-19T01:56:52.473Z,16.08
2018-08-19T02:01:51.759Z,16.18
2018-08-19T02:06:52.247Z,15.88
2018-08-19T02:11:52.510Z,16.58
2018-08-19T02:16:56.843Z,16.08
2018-08-19T02:21:52.262Z,15.98
2018-08-19T02:26:52.154Z,16.28
2018-08-19T02:31:52.163Z,16.58
2018-08-19T02:36:52.618Z,16.58
2018-08-19T02:41:51.821Z,16.38
2018-08-19T02:46:52.119Z,15.58
2018-08-19T02:51:53.963Z,15.98
2018-08-19T02:56:52.165Z,15.88
2018-08-19T03:01:52.470Z,15.48
2018-08-19T03:06:51.939Z,15.98
2018-08-19T03:11:52.162Z,15.38
2018-08-19T03:16:52.444Z,14.98
2018-08-19T03:21:51.886Z,15.08
2018-08-19T03:26:52.502Z,16.18
2018-08-19T03:31:51.808Z,16.18
2018-08-19T03:36:52.248Z,15.38
2018-08-19T03:41:52.850Z,14.98
2018-08-19T03:46:51.766Z,15.18
2018-08-19T03:51:52.237Z,15.28
2018-08-19T03:56:52.304Z,15.38
2018-08-19T04:01:52.112Z,14.98
2018-08-19T04:06:52.597Z,14.88
2018-08-19T04:11:51.831Z,15.18
2018-08-19T04:16:52.131Z,15.08
2018-08-19T04:21:57.985Z,14.88
2018-08-19T04:26:52.190Z,14.68
2018-08-19T04:31:52.501Z,14.68
2018-08-19T04:36:52.383Z,14.68
2018-08-19T04:41:52.147Z,15.48
2018-08-19T04:46:52.845Z,15.38
2018-08-19T04:51:51.926Z,14.98
2018-08-19T04:56:52.494Z,14.68
2018-08-19T05:01:51.815Z,15.18
2018-08-19T05:06:52.321Z,15.08
2018-08-19T05:11:52.051Z,14.68
2018-08-19T05:16:52.344Z,14.98
2018-08-19T05:21:52.811Z,15.38
2018-08-19T05:26:52.413Z,15.38
2018-08-19T05:31:52.717Z,15.18
2018-08-19T05:36:52.712Z,14.78
2018-08-19T05:41:51.947Z,14.98
2018-08-19T05:46:52.236Z,15.68
2018-08-19T05:51:52.664Z,16.28
2018-08-19T05:56:52.238Z,16.48
2018-08-19T06:01:52.525Z,16.58
2018-08-19T06:06:52.045Z,16.68
2018-08-19T06:11:52.284Z,16.78
2018-08-19T06:16:52.563Z,16.88
2018-08-19T06:21:52.605Z,16.98
2018-08-19T06:26:52.663Z,16.98
2018-08-19T06:31:51.877Z,17.08
2018-08-19T06:36:52.768Z,17.18
2018-08-19T06:41:52.574Z,17.28
2018-08-19T06:46:51.925Z,17.28
2018-08-19T06:51:52.365Z,17.38
2018-08-19T06:56:51.885Z,17.48
2018-08-19T07:01:52.221Z,17.58
2018-08-19T07:06:53.080Z,17.78
2018-08-19T07:11:51.900Z,17.98
2018-08-19T07:16:52.165Z,18.18
2018-08-19T07:21:52.620Z,18.38
2018-08-19T07:26:52.759Z,18.48
2018-08-19T07:31:53.134Z,18.68
2018-08-19T07:36:52.355Z,18.78
2018-08-19T07:41:52.228Z,18.78
2018-08-19T07:46:52.496Z,19.08
2018-08-19T07:51:51.952Z,19.28
2018-08-19T07:56:52.520Z,19.48
2018-08-19T08:01:51.822Z,19.57
2018-08-19T08:06:52.317Z,19.81
2018-08-19T08:11:52.575Z,19.79
2018-08-19T08:16:51.868Z,20.02
2018-08-19T08:21:52.337Z,20.14
2018-08-19T08:26:51.902Z,20.22
2018-08-19T08:31:52.185Z,20.27
2018-08-19T08:36:52.663Z,20.17
2018-08-19T08:41:51.872Z,20.07
2018-08-19T08:46:52.204Z,20.37
2018-08-19T08:51:52.614Z,20.70
2018-08-19T08:56:52.214Z,20.64
2018-08-19T09:01:52.548Z,20.77
2018-08-19T09:06:52.007Z,21.08
2018-08-19T09:11:52.266Z,21.25
2018-08-19T09:16:52.536Z,21.55
2018-08-19T09:21:51.989Z,21.33
2018-08-19T09:26:52.570Z,21.15
2018-08-19T09:31:51.980Z,21.64
2018-08-19T09:36:52.390Z,21.53
2018-08-19T09:41:52.963Z,21.40
2018-08-19T09:46:51.888Z,21.22
2018-08-19T09:51:52.331Z,21.33
2018-08-19T09:56:51.935Z,21.48
2018-08-19T10:01:52.220Z,21.80
2018-08-19T10:06:52.616Z,21.96
2018-08-19T10:11:51.844Z,21.64
2018-08-19T10:16:52.136Z,21.52
2018-08-19T10:21:52.587Z,21.95
2018-08-19T10:26:52.273Z,21.85
2018-08-19T10:31:52.459Z,22.16
2018-08-19T10:36:51.912Z,22.34
2018-08-19T10:41:52.094Z,22.08
2018-08-19T10:46:52.428Z,22.02
2018-08-19T10:51:51.874Z,21.99
2018-08-19T10:56:52.468Z,21.92
2018-08-19T11:01:51.740Z,22.17
2018-08-19T11:06:52.619Z,22.26
2018-08-19T11:11:52.417Z,22.51
2018-08-19T11:16:52.703Z,22.43
2018-08-19T11:21:52.139Z,22.18
2018-08-19T11:26:51.724Z,22.61
2018-08-19T11:31:52.029Z,22.75
2018-08-19T11:36:52.495Z,22.91
2018-08-19T11:41:51.768Z,22.77
2018-08-19T11:46:52.018Z,22.54
2018-08-19T11:51:52.498Z,22.89
2018-08-19T11:56:52.085Z,22.77
2018-08-19T12:01:52.359Z,22.85
2018-08-19T12:06:51.906Z,22.78
2018-08-19T12:11:52.104Z,22.62
2018-08-19T12:16:52.598Z,22.83
2018-08-19T12:21:51.908Z,22.92
2018-08-19T12:26:52.464Z,22.76
2018-08-19T12:31:51.757Z,22.51
2018-08-19T12:36:52.221Z,22.92
2018-08-19T12:41:53.834Z,23.04
2018-08-19T12:46:51.731Z,23.02
2018-08-19T12:51:52.220Z,23.69
2018-08-19T12:56:52.395Z,23.93
2018-08-19T13:01:53.461Z,23.90
2018-08-19T13:06:52.556Z,23.82
2018-08-19T13:11:51.820Z,23.86
2018-08-19T13:16:52.086Z,23.96
2018-08-19T13:21:52.916Z,23.55
2018-08-19T13:26:52.091Z,24.07
2018-08-19T13:31:52.442Z,23.51
2018-08-19T13:36:51.836Z,23.77
2018-08-19T13:41:52.099Z,23.95
2018-08-19T13:46:52.344Z,24.26
2018-08-19T13:51:52.841Z,23.35
2018-08-19T13:56:52.820Z,23.56
2018-08-19T14:01:51.861Z,24.09
2018-08-19T14:06:58.615Z,23.68
2018-08-19T14:11:52.426Z,24.30
2018-08-19T14:16:51.802Z,23.80
2018-08-19T14:21:52.208Z,23.97
2018-08-19T14:26:51.870Z,23.91
2018-08-19T14:31:52.108Z,24.11
2018-08-19T14:36:52.575Z,24.27
2018-08-19T14:41:51.810Z,23.89
2018-08-19T14:46:52.134Z,23.79
2018-08-19T14:51:53.001Z,23.85
2018-08-19T14:56:52.201Z,23.91
2018-08-19T15:01:52.492Z,24.19
2018-08-19T15:06:51.965Z,24.03
2018-08-19T15:11:52.251Z,23.68
2018-08-19T15:16:52.621Z,24.00
2018-08-19T15:21:52.007Z,23.49
2018-08-19T15:26:52.585Z,23.69
2018-08-19T15:31:52.680Z,23.66
2018-08-19T15:36:52.318Z,23.53
2018-08-19T15:41:52.549Z,23.88
2018-08-19T15:46:51.933Z,23.48
2018-08-19T15:51:52.307Z,23.45
2018-08-19T15:56:51.929Z,23.50
2018-08-19T16:01:52.795Z,23.72
2018-08-19T16:06:52.707Z,23.65
2018-08-19T16:11:52.527Z,23.84
2018-08-19T16:16:52.197Z,23.83
2018-08-19T16:21:53.278Z,23.34
2018-08-19T16:26:52.274Z,23.15
2018-08-19T16:31:53.112Z,23.61
2018-08-19T16:36:52.036Z,23.85
2018-08-19T16:41:52.848Z,23.78
2018-08-19T16:46:52.519Z,23.87
2018-08-19T16:51:51.982Z,23.78
2018-08-19T16:56:52.842Z,23.73
2018-08-19T17:01:51.995Z,23.80
2018-08-19T17:06:53.046Z,23.98
2018-08-19T17:11:52.626Z,23.69
2018-08-19T17:16:51.950Z,23.86
2018-08-19T17:21:52.441Z,23.66
2018-08-19T17:26:52.326Z,23.30
2018-08-19T17:31:52.293Z,23.65
2018-08-19T17:36:57.755Z,23.62
2018-08-19T17:41:51.961Z,23.38
2018-08-19T17:46:52.353Z,23.48
2018-08-19T17:51:52.710Z,23.31
2018-08-19T17:56:57.411Z,23.28
2018-08-19T18:01:52.587Z,23.25
2018-08-19T18:06:52.706Z,23.24
2018-08-19T18:11:52.387Z,23.10
2018-08-19T18:16:52.635Z,23.13
2018-08-19T18:21:52.457Z,22.96
2018-08-19T18:26:53.037Z,22.93
2018-08-19T18:31:51.969Z,22.92
2018-08-19T18:36:52.413Z,22.96
2018-08-19T18:41:52.625Z,23.04
2018-08-19T18:46:51.905Z,23.14
2018-08-19T18:51:52.353Z,23.24
2018-08-19T18:56:51.974Z,23.12
2018-08-19T19:01:52.239Z,23.27
2018-08-19T19:06:52.792Z,23.35
2018-08-19T19:11:52.032Z,23.03
2018-08-19T19:16:52.290Z,22.64
2018-08-19T19:21:52.747Z,22.60
2018-08-19T19:26:52.338Z,22.62
2018-08-19T19:31:52.637Z,22.49
2018-08-19T19:36:52.120Z,22.45
2018-08-19T19:41:52.341Z,22.60
2018-08-19T19:46:52.651Z,22.22
2018-08-19T19:51:52.100Z,21.97
2018-08-19T19:56:52.663Z,21.90
2018-08-19T20:01:53.132Z,22.11
2018-08-19T20:06:52.484Z,22.17
2018-08-19T20:11:52.687Z,22.25
2018-08-19T20:16:52.004Z,22.13
2018-08-19T20:21:52.438Z,22.02
2018-08-19T20:26:52.051Z,21.85
2018-08-19T20:31:52.443Z,21.42
2018-08-19T20:36:53.213Z,21.47
2018-08-19T20:41:52.078Z,21.53
2018-08-19T20:46:52.296Z,21.35
2018-08-19T20:51:52.768Z,21.30
2018-08-19T20:56:52.405Z,21.09
2018-08-19T21:01:52.676Z,21.17
2018-08-19T21:06:52.579Z,21.03
2018-08-19T21:11:52.403Z,21.09
2018-08-19T21:16:52.681Z,21.20
2018-08-19T21:21:52.148Z,21.15
2018-08-19T21:26:51.744Z,21.44
2018-08-19T21:31:52.011Z,21.49
2018-08-19T21:36:52.910Z,21.29
2018-08-19T21:41:51.735Z,21.20
2018-08-19T21:46:52.054Z,21.05
2018-08-19T21:51:52.521Z,21.08
2018-08-19T21:56:52.098Z,21.12
2018-08-19T22:01:52.385Z,21.50
2018-08-19T22:06:52.505Z,21.08
2018-08-19T22:11:52.123Z,20.98
2018-08-19T22:16:52.409Z,20.78
2018-08-19T22:21:51.867Z,20.38
2018-08-19T22:26:52.505Z,20.38
2018-08-19T22:31:51.744Z,20.48
2018-08-19T22:36:52.642Z,20.68
2018-08-19T22:41:52.939Z,20.78
2018-08-19T22:46:51.761Z,21.38
2018-08-19T22:51:52.227Z,21.38
2018-08-19T22:56:51.831Z,20.98
2018-08-19T23:01:52.108Z,20.68
2018-08-19T23:06:52.627Z,20.58
2018-08-19T23:11:51.827Z,20.68
2018-08-19T23:16:52.118Z,20.68
2018-08-19T23:21:52.571Z,21.38
2018-08-19T23:26:52.166Z,21.08
2018-08-19T23:31:52.490Z,20.88
2018-08-19T23:36:51.939Z,20.68
2018-08-19T23:41:52.128Z,21.08
2018-08-19T23:46:52.473Z,21.08
2018-08-19T23:51:51.884Z,21.38
2018-08-19T23:56:52.452Z,21.38
